This is the latest recevied weather packets stored in our database for station/object KF7PIZ. If no packets are shown the sender has not sent any weather packets the latest 1 day(s).
| Time | Temp. | Humidity | Pressure | Rain* | Wind** | Luminosity | Snow |
|---|---|---|---|---|---|---|---|
| 1778013814 | 20° C | 52% | 1014.4 hPa | 0 mm | 0 m/s | 314 W/m² | - |
| 1778013511 | 20° C | 48% | 1014.2 hPa | 0 mm | 0 m/s | 234 W/m² | - |
| 1778013207 | 18.89° C | 52% | 1014.4 hPa | 0 mm | 0 m/s | 561 W/m² | - |
| 1778012904 | 18.33° C | 53% | 1014.1 hPa | 0 mm | 0 m/s | 163 W/m² | - |
| 1778012600 | 18.89° C | 50% | 1014.6 hPa | 0 mm | 0 m/s | 128 W/m² | - |
| 1778012297 | 20° C | 48% | 1014.5 hPa | 0 mm | 0 m/s | 249 W/m² | - |
| 1778011994 | 20° C | 53% | 1014.4 hPa | 0 mm | 0 m/s | 825 W/m² | - |
| 1778011693 | 19.44° C | 52% | 1014.4 hPa | 0 mm | 0 m/s | 827 W/m² | - |
| 1778011389 | 19.44° C | 50% | 1014.5 hPa | 0 mm | 0 m/s | 207 W/m² | - |
| 1778011084 | 18.33° C | 57% | 1014.5 hPa | 0 mm | 0 m/s | 775 W/m² | - |
| 1778010782 | 20° C | 50% | 1014.7 hPa | 0 mm | 0 m/s | 747 W/m² | - |
| 1778010479 | 20.56° C | 56% | 1014.5 hPa | 0 mm | 0 m/s | 759 W/m² | - |
| 1778010176 | 20° C | 56% | 1014.7 hPa | 0 mm | 0 m/s | 781 W/m² | - |
| 1778009876 | 19.44° C | 56% | 1014.7 hPa | 0 mm | 0 m/s | 779 W/m² | - |
| 1778009574 | 18.89° C | 53% | 1014.7 hPa | 0 mm | 0 m/s | 740 W/m² | - |
| 1778009273 | 18.33° C | 56% | 1014.6 hPa | 0 mm | 0 m/s | 746 W/m² | - |
| 1778008970 | 18.33° C | 58% | 1014.6 hPa | 0 mm | 0 m/s | 791 W/m² | - |
| 1778008668 | 17.78° C | 60% | 1014.7 hPa | 0 mm | 0 m/s | 789 W/m² | - |
| 1778008366 | 18.33° C | 61% | 1014.6 hPa | 0 mm | 0 m/s | 792 W/m² | - |
| 1778008062 | 17.78° C | 60% | 1014.7 hPa | 0 mm | 0 m/s | 704 W/m² | - |
| 1778007757 | 18.33° C | 54% | 1014.6 hPa | 0 mm | 0 m/s | 615 W/m² | - |
| 1778007454 | 17.78° C | 63% | 1014.8 hPa | 0 mm | 0 m/s | 566 W/m² | - |
| 1778007150 | 17.78° C | 57% | 1014.6 hPa | 0 mm | 0 m/s | 588 W/m² | - |
| 1778006846 | 17.22° C | 62% | 1014.7 hPa | 0 mm | 0 m/s | 613 W/m² | - |
| 1778006544 | 16.67° C | 64% | 1014.9 hPa | 0 mm | 0 m/s | 646 W/m² | - |
* Rain latest hour (hover to see other rain measurements)
** Current wind speed in m/s (hover to see current wind gust speed)